Time,TemperatureF,DewpointF,PressureIn,WindDirection,WindDirectionDegrees,WindSpeedMPH,WindSpeedGustMPH,Humidity,HourlyPrecipIn,Conditions,Clouds,dailyrainin,SoftwareType,DateUTC
2013-08-19 00:00:00,74.0,73.4,30.07,WSW,252,0.0,0.0,98,0.00,,---,0.00,VWS V14.01,2013-08-19 04:00:00,
2013-08-19 00:01:00,73.9,73.3,30.07,WSW,252,0.0,0.0,98,0.00,,---,0.00,VWS V14.01,2013-08-19 04:01:00,
2013-08-19 00:04:00,73.9,73.3,30.07,WSW,252,0.0,0.0,98,0.00,,---,0.00,VWS V14.01,2013-08-19 04:04:00,
2013-08-19 00:09:00,73.8,73.2,30.07,WSW,252,0.0,0.0,98,0.00,,---,0.00,VWS V14.01,2013-08-19 04:09:00,
2013-08-19 00:14:00,73.7,73.1,30.07,WSW,252,0.0,0.0,98,0.00,,---,0.00,VWS V14.01,2013-08-19 04:14:00,
2013-08-19 00:19:00,73.6,73.0,30.08,WSW,252,0.0,0.0,98,0.00,,---,0.00,VWS V14.01,2013-08-19 04:19:00,
2013-08-19 00:24:00,73.5,72.9,30.07,WSW,252,0.0,0.0,98,0.00,,---,0.00,VWS V14.01,2013-08-19 04:24:00,
2013-08-19 00:29:00,73.4,72.8,30.08,WSW,252,0.0,0.0,98,0.00,,---,0.00,VWS V14.01,2013-08-19 04:29:00,
2013-08-19 00:30:00,73.4,72.8,30.08,WSW,252,0.0,0.0,98,0.00,,---,0.00,VWS V14.01,2013-08-19 04:30:00,
2013-08-19 00:34:00,73.3,73.0,30.08,WSW,252,0.0,0.0,99,0.00,,---,0.00,VWS V14.01,2013-08-19 04:34:00,
2013-08-19 00:39:00,73.3,73.0,30.07,WSW,252,0.0,0.0,99,0.00,,---,0.00,VWS V14.01,2013-08-19 04:39:00,
2013-08-19 00:44:00,73.3,73.0,30.07,WSW,252,0.0,0.0,99,0.00,,---,0.00,VWS V14.01,2013-08-19 04:44:00,
2013-08-19 00:49:00,73.4,73.1,30.07,WSW,252,0.0,0.0,99,0.00,,---,0.00,VWS V14.01,2013-08-19 04:49:00,
2013-08-19 00:55:00,73.5,73.2,30.07,WSW,252,0.0,1.0,99,0.00,,---,0.00,VWS V14.01,2013-08-19 04:55:00,
2013-08-19 01:00:00,73.5,73.2,30.07,WSW,252,0.0,0.0,99,0.00,,---,0.00,VWS V14.01,2013-08-19 05:00:00,
2013-08-19 01:05:00,73.5,73.2,30.07,WSW,252,0.0,0.0,99,0.00,,---,0.00,VWS V14.01,2013-08-19 05:05:00,
2013-08-19 01:10:00,73.4,73.1,30.07,WSW,252,0.0,1.0,99,0.00,,---,0.00,VWS V14.01,2013-08-19 05:10:00,
2013-08-19 01:15:00,73.4,73.1,30.06,WSW,252,0.0,1.0,99,0.00,,---,0.00,VWS V14.01,2013-08-19 05:15:00,
2013-08-19 01:20:00,73.3,73.0,30.06,WSW,252,0.0,1.0,99,0.00,,---,0.00,VWS V14.01,2013-08-19 05:20:00,
2013-08-19 01:25:00,73.3,73.0,30.06,WSW,252,0.0,1.0,99,0.00,,---,0.00,VWS V14.01,2013-08-19 05:25:00,
2013-08-19 01:30:00,73.3,73.0,30.06,WSW,252,0.0,0.0,99,0.00,,---,0.00,VWS V14.01,2013-08-19 05:30:00,
2013-08-19 01:35:00,73.3,73.0,30.05,WSW,252,0.0,0.0,99,0.00,,---,0.00,VWS V14.01,2013-08-19 05:35:00,
2013-08-19 01:40:00,73.3,73.0,30.05,WSW,252,0.0,0.0,99,0.00,,---,0.00,VWS V14.01,2013-08-19 05:40:00,
2013-08-19 01:45:00,73.3,73.0,30.05,WSW,252,0.0,0.0,99,0.00,,---,0.00,VWS V14.01,2013-08-19 05:45:00,
2013-08-19 01:50:00,73.3,73.0,30.05,WSW,252,0.0,0.0,99,0.00,,---,0.00,VWS V14.01,2013-08-19 05:50:00,
2013-08-19 01:55:00,73.3,73.0,30.05,WSW,252,0.0,0.0,99,0.00,,---,0.00,VWS V14.01,2013-08-19 05:55:00,
2013-08-19 02:00:00,73.2,72.9,30.05,WSW,252,0.0,0.0,99,0.00,,---,0.00,VWS V14.01,2013-08-19 06:00:00,
2013-08-19 02:05:00,73.2,72.9,30.05,WSW,252,0.0,0.0,99,0.00,,---,0.00,VWS V14.01,2013-08-19 06:05:00,
2013-08-19 02:30:00,73.1,72.8,30.04,North,0,0.0,0.0,99,0.00,,---,0.00,VWS V14.01,2013-08-19 06:30:00,
2013-08-19 03:00:00,73.1,72.8,30.04,North,0,0.0,0.0,99,0.00,,---,0.00,VWS V14.01,2013-08-19 07:00:00,
2013-08-19 03:30:00,73.1,72.8,30.03,North,0,0.0,0.0,99,0.00,,---,0.00,VWS V14.01,2013-08-19 07:30:00,
2013-08-19 04:00:00,73.1,73.1,30.02,North,0,0.0,0.0,100,0.00,,---,0.00,VWS V14.01,2013-08-19 08:00:00,
2013-08-19 04:30:00,73.1,73.1,30.01,WSW,248,0.0,1.0,100,0.00,,---,0.00,VWS V14.01,2013-08-19 08:30:00,
2013-08-19 05:00:00,73.1,73.1,30.02,North,0,0.0,0.0,100,0.00,,---,0.00,VWS V14.01,2013-08-19 09:00:00,
2013-08-19 05:09:00,73.4,73.4,30.01,WSW,252,0.0,0.0,100,0.00,,---,0.00,VWS V14.01,2013-08-19 09:09:00,
2013-08-19 05:14:00,73.4,73.4,30.01,WSW,252,0.0,1.0,100,0.00,,---,0.00,VWS V14.01,2013-08-19 09:14:00,
2013-08-19 05:19:00,73.4,73.4,30.01,WSW,252,0.0,1.0,100,0.00,,---,0.00,VWS V14.01,2013-08-19 09:19:00,
2013-08-19 05:24:00,73.4,73.4,30.01,WSW,252,0.0,1.0,100,0.00,,---,0.00,VWS V14.01,2013-08-19 09:24:00,
2013-08-19 05:29:00,73.3,73.3,30.01,WSW,252,0.0,1.0,100,0.00,,---,0.00,VWS V14.01,2013-08-19 09:29:00,
2013-08-19 05:30:00,73.4,73.4,30.01,WSW,252,0.0,1.0,100,0.00,,---,0.00,VWS V14.01,2013-08-19 09:30:00,
2013-08-19 05:34:00,73.4,73.4,30.01,WSW,252,0.0,1.0,100,0.00,,---,0.00,VWS V14.01,2013-08-19 09:34:00,
2013-08-19 05:39:00,73.4,73.4,30.00,WSW,252,0.0,1.0,100,0.00,,---,0.00,VWS V14.01,2013-08-19 09:39:00,
2013-08-19 05:44:00,73.4,73.4,30.01,WSW,252,0.0,1.0,100,0.00,,---,0.00,VWS V14.01,2013-08-19 09:44:00,
2013-08-19 05:50:00,73.5,73.5,30.01,WSW,252,0.0,1.0,100,0.00,,---,0.00,VWS V14.01,2013-08-19 09:50:00,
2013-08-19 05:55:00,73.5,73.5,30.01,WSW,252,0.0,1.0,100,0.00,,---,0.00,VWS V14.01,2013-08-19 09:55:00,
2013-08-19 06:00:00,73.4,73.4,30.01,WSW,252,0.0,0.0,100,0.00,,---,0.00,VWS V14.01,2013-08-19 10:00:00,
2013-08-19 06:05:00,73.3,73.3,30.01,WSW,252,0.0,0.0,100,0.00,,---,0.00,VWS V14.01,2013-08-19 10:05:00,
2013-08-19 06:10:00,73.3,73.3,30.01,WSW,252,0.0,1.0,100,0.00,,---,0.00,VWS V14.01,2013-08-19 10:10:00,
2013-08-19 06:15:00,73.4,73.4,30.01,WSW,252,2.0,2.0,100,0.00,,---,0.00,VWS V14.01,2013-08-19 10:15:00,
2013-08-19 06:20:00,73.5,73.5,30.01,WSW,252,0.0,2.0,100,0.00,,---,0.00,VWS V14.01,2013-08-19 10:20:00,
2013-08-19 06:25:00,73.5,73.5,30.01,WSW,252,0.0,2.0,100,0.00,,---,0.00,VWS V14.01,2013-08-19 10:25:00,
2013-08-19 06:30:00,73.4,73.4,30.01,WSW,252,0.0,0.0,100,0.00,,---,0.00,VWS V14.01,2013-08-19 10:30:00,
2013-08-19 06:35:00,73.4,73.4,30.01,WSW,252,0.0,0.0,100,0.00,,---,0.00,VWS V14.01,2013-08-19 10:35:00,
2013-08-19 06:40:00,73.5,73.5,30.01,WSW,252,0.0,1.0,100,0.00,,---,0.00,VWS V14.01,2013-08-19 10:40:00,
2013-08-19 06:45:00,73.5,73.5,30.01,WSW,252,0.0,1.0,100,0.00,,---,0.00,VWS V14.01,2013-08-19 10:45:00,
2013-08-19 06:50:00,73.6,73.6,30.01,WSW,252,0.0,1.0,100,0.00,,---,0.00,VWS V14.01,2013-08-19 10:50:00,
2013-08-19 06:55:00,73.7,73.7,30.01,WSW,252,0.0,1.0,100,0.00,,---,0.00,VWS V14.01,2013-08-19 10:55:00,
2013-08-19 07:00:00,73.7,73.7,30.01,WSW,252,0.0,0.0,100,0.00,,---,0.00,VWS V14.01,2013-08-19 11:00:00,
2013-08-19 07:05:00,73.9,73.9,30.01,WSW,252,0.0,0.0,100,0.00,,---,0.00,VWS V14.01,2013-08-19 11:05:00,
2013-08-19 07:10:00,74.0,74.0,30.01,WSW,252,0.0,0.0,100,0.00,,---,0.00,VWS V14.01,2013-08-19 11:10:00,
2013-08-19 07:15:00,74.2,74.2,30.01,WSW,252,0.0,0.0,100,0.00,,---,0.00,VWS V14.01,2013-08-19 11:15:00,
2013-08-19 07:20:00,74.6,74.6,30.01,WSW,252,0.0,0.0,100,0.00,,---,0.00,VWS V14.01,2013-08-19 11:20:00,
2013-08-19 07:25:00,75.0,75.0,30.01,WSW,252,0.0,0.0,100,0.00,,---,0.00,VWS V14.01,2013-08-19 11:25:00,
2013-08-19 07:30:00,75.3,75.3,30.01,WSW,252,0.0,0.0,100,0.00,,---,0.00,VWS V14.01,2013-08-19 11:30:00,
2013-08-19 07:35:00,75.7,75.7,30.02,WSW,252,0.0,1.0,100,0.00,,---,0.00,VWS V14.01,2013-08-19 11:35:00,
2013-08-19 07:40:00,75.9,75.9,30.02,WSW,252,0.0,1.0,100,0.00,,---,0.00,VWS V14.01,2013-08-19 11:40:00,
2013-08-19 07:45:00,76.2,76.2,30.02,WSW,252,0.0,1.0,100,0.00,,---,0.00,VWS V14.01,2013-08-19 11:45:00,
2013-08-19 07:50:00,76.4,76.4,30.02,WSW,252,1.0,1.0,100,0.00,,---,0.00,VWS V14.01,2013-08-19 11:50:00,
2013-08-19 07:56:00,76.7,76.7,30.02,WSW,252,0.0,2.0,100,0.00,,---,0.00,VWS V14.01,2013-08-19 11:56:00,
2013-08-19 08:00:00,76.9,76.9,30.02,WSW,252,0.0,2.0,100,0.00,,---,0.00,VWS V14.01,2013-08-19 12:00:00,
2013-08-19 08:01:00,77.0,77.0,30.02,WSW,252,0.0,0.0,100,0.00,,---,0.00,VWS V14.01,2013-08-19 12:01:00,
2013-08-19 08:06:00,77.3,77.3,30.02,WSW,252,0.0,1.0,100,0.00,,---,0.00,VWS V14.01,2013-08-19 12:06:00,
2013-08-19 08:11:00,77.5,77.5,30.03,WSW,252,0.0,1.0,100,0.00,,---,0.00,VWS V14.01,2013-08-19 12:11:00,
2013-08-19 08:16:00,77.9,77.9,30.03,WSW,252,0.0,1.0,100,0.00,,---,0.00,VWS V14.01,2013-08-19 12:16:00,
2013-08-19 08:21:00,78.4,78.4,30.03,WSW,252,0.0,2.0,100,0.00,,---,0.00,VWS V14.01,2013-08-19 12:21:00,
2013-08-19 08:26:00,78.5,78.5,30.04,WSW,252,0.0,2.0,100,0.00,,---,0.00,VWS V14.01,2013-08-19 12:26:00,
2013-08-19 08:30:00,78.7,78.7,30.04,WSW,252,0.0,2.0,100,0.00,,---,0.00,VWS V14.01,2013-08-19 12:30:00,
2013-08-19 08:31:00,78.7,78.7,30.04,WSW,252,0.0,2.0,100,0.00,,---,0.00,VWS V14.01,2013-08-19 12:31:00,
2013-08-19 08:36:00,79.0,79.0,30.04,WSW,252,2.0,3.0,100,0.00,,---,0.00,VWS V14.01,2013-08-19 12:36:00,
2013-08-19 08:41:00,79.1,79.1,30.04,WSW,252,1.0,3.0,100,0.00,,---,0.00,VWS V14.01,2013-08-19 12:41:00,
2013-08-19 08:46:00,79.6,79.6,30.04,WSW,252,1.0,3.0,100,0.00,,---,0.00,VWS V14.01,2013-08-19 12:46:00,
2013-08-19 08:51:00,79.8,79.8,30.04,WSW,252,0.0,3.0,100,0.00,,---,0.00,VWS V14.01,2013-08-19 12:51:00,
2013-08-19 08:56:00,80.2,80.2,30.04,WSW,252,0.0,3.0,100,0.00,,---,0.00,VWS V14.01,2013-08-19 12:56:00,
2013-08-19 09:00:00,80.4,80.4,30.04,ESE,117,2.0,5.0,100,0.00,,---,0.00,VWS V14.01,2013-08-19 13:00:00,
2013-08-19 09:01:00,80.4,80.4,30.04,ESE,117,0.0,2.0,100,0.00,,---,0.00,VWS V14.01,2013-08-19 13:01:00,
2013-08-19 09:06:00,80.7,80.7,30.04,ESE,110,2.0,7.0,100,0.00,,---,0.00,VWS V14.01,2013-08-19 13:06:00,
2013-08-19 09:11:00,80.9,80.6,30.04,ESE,116,0.0,7.0,99,0.00,,---,0.00,VWS V14.01,2013-08-19 13:11:00,
2013-08-19 09:16:00,81.3,81.0,30.04,ESE,119,0.0,7.0,99,0.00,,---,0.00,VWS V14.01,2013-08-19 13:16:00,
2013-08-19 09:21:00,81.6,80.7,30.05,SE,134,3.0,7.0,97,0.00,,---,0.00,VWS V14.01,2013-08-19 13:21:00,
2013-08-19 09:26:00,81.8,80.9,30.05,SE,136,0.0,7.0,97,0.00,,---,0.00,VWS V14.01,2013-08-19 13:26:00,
2013-08-19 09:30:00,81.9,80.3,30.05,SE,138,1.0,7.0,95,0.00,,---,0.00,VWS V14.01,2013-08-19 13:30:00,
2013-08-19 09:31:00,82.0,80.4,30.05,SE,138,1.0,4.0,95,0.00,,---,0.00,VWS V14.01,2013-08-19 13:31:00,
2013-08-19 09:36:00,82.0,80.4,30.05,SE,139,1.0,4.0,95,0.00,,---,0.00,VWS V14.01,2013-08-19 13:36:00,
2013-08-19 09:41:00,82.5,81.2,30.05,SE,139,2.0,4.0,96,0.00,,---,0.00,VWS V14.01,2013-08-19 13:41:00,
2013-08-19 09:46:00,83.0,80.8,30.05,SE,139,1.0,4.0,93,0.00,,---,0.00,VWS V14.01,2013-08-19 13:46:00,
2013-08-19 09:51:00,83.6,81.4,30.05,SE,138,2.0,4.0,93,0.00,,---,0.00,VWS V14.01,2013-08-19 13:51:00,
2013-08-19 09:56:00,84.1,81.2,30.05,SE,138,3.0,4.0,91,0.00,,---,0.00,VWS V14.01,2013-08-19 13:56:00,
2013-08-19 10:00:00,84.4,81.5,30.05,SE,138,2.0,4.0,91,0.00,,---,0.00,VWS V14.01,2013-08-19 14:00:00,
2013-08-19 10:01:00,84.5,81.2,30.05,SE,138,1.0,2.0,90,0.00,,---,0.00,VWS V14.01,2013-08-19 14:01:00,
2013-08-19 10:06:00,84.8,81.2,30.05,SE,139,0.0,3.0,89,0.00,,---,0.00,VWS V14.01,2013-08-19 14:06:00,
2013-08-19 10:11:00,85.3,81.0,30.05,SE,139,2.0,4.0,87,0.00,,---,0.00,VWS V14.01,2013-08-19 14:11:00,
2013-08-19 10:16:00,85.5,81.2,30.05,SE,139,2.0,4.0,87,0.00,,---,0.00,VWS V14.01,2013-08-19 14:16:00,
2013-08-19 10:21:00,85.5,81.2,30.05,SE,139,2.0,4.0,87,0.00,,---,0.00,VWS V14.01,2013-08-19 14:21:00,
2013-08-19 10:26:00,85.6,80.2,30.05,SE,141,1.0,5.0,84,0.00,,---,0.00,VWS V14.01,2013-08-19 14:26:00,
2013-08-19 10:30:00,85.7,81.0,30.05,SE,141,2.0,5.0,86,0.00,,---,0.00,VWS V14.01,2013-08-19 14:30:00,
2013-08-19 10:31:00,85.9,80.5,30.05,SE,141,2.0,3.0,84,0.00,,---,0.00,VWS V14.01,2013-08-19 14:31:00,
2013-08-19 10:36:00,86.3,80.5,30.06,SE,141,4.0,4.0,83,0.00,,---,0.00,VWS V14.01,2013-08-19 14:36:00,
2013-08-19 10:42:00,86.9,80.7,30.06,SE,141,3.0,4.0,82,0.00,,---,0.00,VWS V14.01,2013-08-19 14:42:00,
2013-08-19 10:47:00,87.3,80.4,30.06,SE,142,0.0,4.0,80,0.00,,---,0.00,VWS V14.01,2013-08-19 14:47:00,
2013-08-19 10:52:00,87.3,80.0,30.06,SE,142,3.0,4.0,79,0.00,,---,0.00,VWS V14.01,2013-08-19 14:52:00,
2013-08-19 10:58:00,87.4,80.5,30.05,SE,142,0.0,4.0,80,0.00,,---,0.00,VWS V14.01,2013-08-19 14:58:00,
2013-08-19 11:00:00,87.6,79.9,30.05,SE,142,1.0,4.0,78,0.00,,---,0.00,VWS V14.01,2013-08-19 15:00:00,
2013-08-19 11:03:00,87.8,80.5,30.05,SE,142,4.0,4.0,79,0.00,,---,0.00,VWS V14.01,2013-08-19 15:03:00,
2013-08-19 11:08:00,87.9,80.2,30.05,SE,142,2.0,4.0,78,0.00,,---,0.00,VWS V14.01,2013-08-19 15:08:00,
2013-08-19 11:13:00,88.0,80.7,30.06,SE,142,2.0,4.0,79,0.00,,---,0.00,VWS V14.01,2013-08-19 15:13:00,
2013-08-19 11:18:00,88.1,80.4,30.06,SE,143,2.0,5.0,78,0.00,,---,0.00,VWS V14.01,2013-08-19 15:18:00,
2013-08-19 11:23:00,87.7,80.4,30.06,SSE,148,2.0,5.0,79,0.00,,---,0.00,VWS V14.01,2013-08-19 15:23:00,
2013-08-19 11:28:00,87.7,79.6,30.05,SSE,154,0.0,5.0,77,0.00,,---,0.00,VWS V14.01,2013-08-19 15:28:00,
2013-08-19 11:30:00,87.7,79.6,30.05,SSE,154,3.0,5.0,77,0.00,,---,0.00,VWS V14.01,2013-08-19 15:30:00,
2013-08-19 11:33:00,87.6,79.5,30.05,SSE,154,0.0,3.0,77,0.00,,---,0.00,VWS V14.01,2013-08-19 15:33:00,
2013-08-19 11:38:00,87.9,80.6,30.05,SSE,154,2.0,3.0,79,0.00,,---,0.00,VWS V14.01,2013-08-19 15:38:00,
2013-08-19 11:43:00,88.0,79.9,30.05,SSE,154,2.0,4.0,77,0.00,,---,0.00,VWS V14.01,2013-08-19 15:43:00,
2013-08-19 11:48:00,88.3,79.8,30.05,SSE,166,0.0,4.0,76,0.00,,---,0.00,VWS V14.01,2013-08-19 15:48:00,
2013-08-19 11:53:00,88.4,79.5,30.05,South,170,1.0,4.0,75,0.00,,---,0.00,VWS V14.01,2013-08-19 15:53:00,
2013-08-19 11:58:00,88.4,79.5,30.05,South,176,4.0,5.0,75,0.00,,---,0.00,VWS V14.01,2013-08-19 15:58:00,
2013-08-19 12:00:00,88.6,79.2,30.05,South,177,4.0,5.0,74,0.00,,---,0.00,VWS V14.01,2013-08-19 16:00:00,
2013-08-19 12:03:00,88.7,80.2,30.05,South,178,2.0,5.0,76,0.00,,---,0.00,VWS V14.01,2013-08-19 16:03:00,
2013-08-19 12:08:00,88.7,78.1,30.05,South,173,5.0,5.0,71,0.00,,---,0.00,VWS V14.01,2013-08-19 16:08:00,
2013-08-19 12:13:00,88.6,76.7,30.05,South,183,3.0,6.0,68,0.00,,---,0.00,VWS V14.01,2013-08-19 16:13:00,
2013-08-19 12:18:00,88.8,77.3,30.04,SSE,167,3.0,6.0,69,0.00,,---,0.00,VWS V14.01,2013-08-19 16:18:00,
2013-08-19 12:23:00,89.3,76.9,30.04,South,180,4.0,6.0,67,0.00,,---,0.00,VWS V14.01,2013-08-19 16:23:00,
2013-08-19 12:28:00,89.6,78.1,30.04,South,185,3.0,6.0,69,0.00,,---,0.00,VWS V14.01,2013-08-19 16:28:00,
2013-08-19 12:30:00,89.7,78.2,30.04,South,189,1.0,6.0,69,0.00,,---,0.00,VWS V14.01,2013-08-19 16:30:00,
2013-08-19 12:33:00,89.8,77.8,30.04,South,181,2.0,5.0,68,0.00,,---,0.00,VWS V14.01,2013-08-19 16:33:00,
2013-08-19 12:38:00,90.0,78.9,30.03,South,178,0.0,5.0,70,0.00,,---,0.00,VWS V14.01,2013-08-19 16:38:00,
2013-08-19 12:43:00,89.9,77.9,30.03,South,178,5.0,5.0,68,0.00,,---,0.00,VWS V14.01,2013-08-19 16:43:00,
2013-08-19 12:48:00,89.1,78.0,30.04,South,175,2.0,5.0,70,0.00,,---,0.00,VWS V14.01,2013-08-19 16:48:00,
2013-08-19 12:53:00,88.3,75.5,30.04,South,175,3.0,5.0,66,0.00,,---,0.00,VWS V14.01,2013-08-19 16:53:00,
2013-08-19 12:59:00,87.9,75.6,30.03,South,175,1.0,5.0,67,0.00,,---,0.00,VWS V14.01,2013-08-19 16:59:00,
2013-08-19 13:00:00,87.8,76.4,30.03,South,175,0.0,5.0,69,0.00,,---,0.00,VWS V14.01,2013-08-19 17:00:00,
2013-08-19 13:03:00,87.7,76.7,30.04,South,170,2.0,3.0,70,0.00,,---,0.00,VWS V14.01,2013-08-19 17:03:00,
2013-08-19 13:08:00,87.4,76.4,30.03,South,170,1.0,4.0,70,0.00,,---,0.00,VWS V14.01,2013-08-19 17:08:00,
2013-08-19 13:14:00,87.1,77.4,30.04,South,171,0.0,4.0,73,0.00,,---,0.00,VWS V14.01,2013-08-19 17:14:00,
2013-08-19 13:19:00,86.8,76.7,30.03,South,171,1.0,4.0,72,0.00,,---,0.00,VWS V14.01,2013-08-19 17:19:00,
2013-08-19 13:24:00,86.5,77.2,30.04,South,171,1.0,4.0,74,0.00,,---,0.00,VWS V14.01,2013-08-19 17:24:00,
2013-08-19 13:29:00,86.5,78.0,30.05,East,92,7.0,7.0,76,0.00,,---,0.00,VWS V14.01,2013-08-19 17:29:00,
2013-08-19 13:30:00,86.4,77.9,30.05,East,90,5.0,7.0,76,0.00,,---,0.00,VWS V14.01,2013-08-19 17:30:00,
2013-08-19 13:34:00,85.2,76.8,30.04,East,86,7.0,8.0,76,0.00,,---,0.00,VWS V14.01,2013-08-19 17:34:00,
2013-08-19 13:39:00,83.5,76.3,30.04,ENE,77,3.0,8.0,79,0.00,,---,0.00,VWS V14.01,2013-08-19 17:39:00,
2013-08-19 13:44:00,82.4,76.0,30.04,ESE,111,2.0,8.0,81,0.00,,---,0.00,VWS V14.01,2013-08-19 17:44:00,
2013-08-19 13:49:00,81.6,75.6,30.04,East,96,5.0,8.0,82,0.00,,---,0.00,VWS V14.01,2013-08-19 17:49:00,
2013-08-19 13:54:00,81.2,75.6,30.03,ESE,105,3.0,8.0,83,0.00,,---,0.00,VWS V14.01,2013-08-19 17:54:00,
2013-08-19 13:59:00,81.2,75.6,30.03,East,94,3.0,8.0,83,0.00,,---,0.00,VWS V14.01,2013-08-19 17:59:00,
2013-08-19 14:00:00,81.2,75.6,30.03,East,94,2.0,8.0,83,0.00,,---,0.00,VWS V14.01,2013-08-19 18:00:00,
2013-08-19 14:04:00,81.3,75.7,30.03,ESE,103,0.0,7.0,83,0.00,,---,0.00,VWS V14.01,2013-08-19 18:04:00,
2013-08-19 14:09:00,81.6,75.9,30.03,ENE,65,5.0,7.0,83,0.00,,---,0.00,VWS V14.01,2013-08-19 18:09:00,
2013-08-19 14:14:00,82.1,76.8,30.03,East,98,2.0,7.0,84,0.00,,---,0.00,VWS V14.01,2013-08-19 18:14:00,
2013-08-19 14:19:00,82.9,77.2,30.03,East,85,1.0,8.0,83,0.00,,---,0.00,VWS V14.01,2013-08-19 18:19:00,
2013-08-19 14:24:00,83.7,77.6,30.02,East,94,1.0,8.0,82,0.00,,---,0.00,VWS V14.01,2013-08-19 18:24:00,
2013-08-19 14:29:00,84.3,78.2,30.02,ESE,111,4.0,8.0,82,0.00,,---,0.00,VWS V14.01,2013-08-19 18:29:00,
2013-08-19 14:30:00,84.3,77.8,30.02,ESE,111,2.0,8.0,81,0.00,,---,0.00,VWS V14.01,2013-08-19 18:30:00,
2013-08-19 14:34:00,84.5,78.0,30.02,NE,55,6.0,7.0,81,0.00,,---,0.00,VWS V14.01,2013-08-19 18:34:00,
2013-08-19 14:39:00,84.4,77.6,30.02,ENE,71,4.0,9.0,80,0.00,,---,0.00,VWS V14.01,2013-08-19 18:39:00,
2013-08-19 14:44:00,84.5,77.3,30.01,East,101,5.0,9.0,79,0.00,,---,0.00,VWS V14.01,2013-08-19 18:44:00,
2013-08-19 14:49:00,85.0,77.4,30.01,East,92,2.0,9.0,78,0.00,,---,0.00,VWS V14.01,2013-08-19 18:49:00,
2013-08-19 14:54:00,85.3,77.7,30.01,ENE,61,3.0,9.0,78,0.00,,---,0.00,VWS V14.01,2013-08-19 18:54:00,
2013-08-19 14:59:00,85.4,76.6,30.00,ENE,62,2.0,9.0,75,0.00,,---,0.00,VWS V14.01,2013-08-19 18:59:00,
2013-08-19 15:00:00,85.5,76.3,30.00,ENE,62,1.0,9.0,74,0.00,,---,0.00,VWS V14.01,2013-08-19 19:00:00,
2013-08-19 15:04:00,85.7,76.9,30.00,ENE,57,2.0,7.0,75,0.00,,---,0.00,VWS V14.01,2013-08-19 19:04:00,
2013-08-19 15:09:00,86.1,77.2,29.99,East,86,5.0,7.0,75,0.00,,---,0.00,VWS V14.01,2013-08-19 19:09:00,
2013-08-19 15:14:00,86.9,77.2,29.99,East,88,0.0,7.0,73,0.00,,---,0.00,VWS V14.01,2013-08-19 19:14:00,
2013-08-19 15:19:00,87.2,77.1,29.99,ENE,59,3.0,7.0,72,0.00,,---,0.00,VWS V14.01,2013-08-19 19:19:00,
2013-08-19 15:24:00,87.3,76.8,29.99,NE,56,1.0,7.0,71,0.00,,---,0.00,VWS V14.01,2013-08-19 19:24:00,
2013-08-19 15:29:00,87.6,78.7,29.99,NE,55,4.0,7.0,75,0.00,,---,0.00,VWS V14.01,2013-08-19 19:29:00,
2013-08-19 15:30:00,87.6,78.7,29.99,NE,55,4.0,7.0,75,0.00,,---,0.00,VWS V14.01,2013-08-19 19:30:00,
2013-08-19 15:34:00,88.2,78.9,29.99,ENE,62,1.0,5.0,74,0.00,,---,0.00,VWS V14.01,2013-08-19 19:34:00,
2013-08-19 15:39:00,88.8,78.2,29.99,East,88,1.0,5.0,71,0.00,,---,0.00,VWS V14.01,2013-08-19 19:39:00,
2013-08-19 15:44:00,89.6,78.1,29.99,ENE,57,3.0,7.0,69,0.00,,---,0.00,VWS V14.01,2013-08-19 19:44:00,
2013-08-19 15:49:00,89.9,78.4,29.99,ENE,67,0.0,7.0,69,0.00,,---,0.00,VWS V14.01,2013-08-19 19:49:00,
2013-08-19 15:54:00,90.3,79.2,29.98,ENE,58,9.0,9.0,70,0.00,,---,0.00,VWS V14.01,2013-08-19 19:54:00,
2013-08-19 16:00:00,90.5,79.4,29.98,ENE,65,1.0,9.0,70,0.00,,---,0.00,VWS V14.01,2013-08-19 20:00:00,
2013-08-19 16:05:00,90.6,79.0,29.98,ENE,62,1.0,7.0,69,0.00,,---,0.00,VWS V14.01,2013-08-19 20:05:00,
2013-08-19 16:10:00,90.9,79.3,29.98,NE,42,4.0,7.0,69,0.00,,---,0.00,VWS V14.01,2013-08-19 20:10:00,
2013-08-19 16:15:00,90.8,78.8,29.98,East,98,1.0,7.0,68,0.00,,---,0.00,VWS V14.01,2013-08-19 20:15:00,
2013-08-19 16:20:00,90.5,77.6,29.98,ENE,69,3.0,7.0,66,0.00,,---,0.00,VWS V14.01,2013-08-19 20:20:00,
2013-08-19 16:25:00,90.0,78.9,29.98,ENE,68,4.0,8.0,70,0.00,,---,0.00,VWS V14.01,2013-08-19 20:25:00,
2013-08-19 16:30:00,89.7,77.7,29.97,ENE,71,2.0,8.0,68,0.00,,---,0.00,VWS V14.01,2013-08-19 20:30:00,
2013-08-19 16:35:00,89.8,78.3,29.97,ENE,61,5.0,7.0,69,0.00,,---,0.00,VWS V14.01,2013-08-19 20:35:00,
2013-08-19 16:40:00,89.6,78.5,29.97,East,92,1.0,8.0,70,0.00,,---,0.00,VWS V14.01,2013-08-19 20:40:00,
2013-08-19 16:45:00,89.3,77.4,29.96,ENE,66,8.0,9.0,68,0.00,,---,0.00,VWS V14.01,2013-08-19 20:45:00,
2013-08-19 16:50:00,88.8,77.8,29.97,ENE,61,2.0,9.0,70,0.00,,---,0.00,VWS V14.01,2013-08-19 20:50:00,
2013-08-19 16:55:00,88.5,77.9,29.96,ENE,63,0.0,9.0,71,0.00,,---,0.00,VWS V14.01,2013-08-19 20:55:00,
2013-08-19 17:00:00,88.2,77.6,29.96,ENE,65,1.0,1.0,71,0.00,,---,0.00,VWS V14.01,2013-08-19 21:00:00,
2013-08-19 17:05:00,88.0,77.4,29.95,ENE,65,0.0,3.0,71,0.00,,---,0.00,VWS V14.01,2013-08-19 21:05:00,
2013-08-19 17:10:00,87.8,77.7,29.96,ENE,65,0.0,3.0,72,0.00,,---,0.00,VWS V14.01,2013-08-19 21:10:00,
2013-08-19 17:15:00,87.7,77.1,29.96,ENE,65,1.0,4.0,71,0.00,,---,0.00,VWS V14.01,2013-08-19 21:15:00,
2013-08-19 17:20:00,87.4,77.3,29.96,ENE,65,0.0,4.0,72,0.00,,---,0.00,VWS V14.01,2013-08-19 21:20:00,
2013-08-19 17:25:00,87.4,78.5,29.97,ENE,65,0.0,4.0,75,0.00,,---,0.00,VWS V14.01,2013-08-19 21:25:00,
2013-08-19 17:30:00,87.5,78.6,29.97,ENE,65,0.0,1.0,75,0.00,,---,0.00,VWS V14.01,2013-08-19 21:30:00,
2013-08-19 17:35:00,87.6,79.1,29.97,ENE,68,0.0,3.0,76,0.00,,---,0.00,VWS V14.01,2013-08-19 21:35:00,
2013-08-19 17:40:00,87.7,78.8,29.97,SSE,150,6.0,9.0,75,0.00,,---,0.00,VWS V14.01,2013-08-19 21:40:00,
2013-08-19 17:45:00,86.8,78.3,29.97,SE,136,7.0,13.0,76,0.00,,---,0.00,VWS V14.01,2013-08-19 21:45:00,
2013-08-19 17:50:00,85.9,77.9,29.97,ESE,113,8.0,13.0,77,0.00,,---,0.00,VWS V14.01,2013-08-19 21:50:00,
2013-08-19 17:55:00,85.5,77.9,29.97,SE,128,3.0,13.0,78,0.00,,---,0.00,VWS V14.01,2013-08-19 21:55:00,
2013-08-19 18:00:00,85.4,77.8,29.96,East,100,6.0,6.0,78,0.00,,---,0.00,VWS V14.01,2013-08-19 22:00:00,
2013-08-19 18:05:00,85.3,77.3,29.96,ESE,102,2.0,6.0,77,0.00,,---,0.00,VWS V14.01,2013-08-19 22:05:00,
2013-08-19 18:10:00,85.2,76.8,29.96,East,101,3.0,7.0,76,0.00,,---,0.00,VWS V14.01,2013-08-19 22:10:00,
2013-08-19 18:15:00,85.2,77.2,29.96,SE,129,2.0,7.0,77,0.00,,---,0.00,VWS V14.01,2013-08-19 22:15:00,
2013-08-19 18:20:00,85.4,77.4,29.96,ESE,118,2.0,7.0,77,0.00,,---,0.00,VWS V14.01,2013-08-19 22:20:00,
2013-08-19 18:25:00,85.6,77.6,29.96,ESE,110,2.0,7.0,77,0.00,,---,0.00,VWS V14.01,2013-08-19 22:25:00,
2013-08-19 18:30:00,85.4,76.6,29.96,ESE,109,3.0,5.0,75,0.00,,---,0.00,VWS V14.01,2013-08-19 22:30:00,
2013-08-19 18:35:00,85.3,76.1,29.96,East,97,3.0,5.0,74,0.00,,---,0.00,VWS V14.01,2013-08-19 22:35:00,
2013-08-19 18:40:00,85.2,75.6,29.96,ESE,111,3.0,5.0,73,0.00,,---,0.00,VWS V14.01,2013-08-19 22:40:00,
2013-08-19 18:45:00,85.1,75.9,29.96,ESE,105,4.0,6.0,74,0.00,,---,0.00,VWS V14.01,2013-08-19 22:45:00,
2013-08-19 18:50:00,85.0,75.8,29.96,East,101,0.0,6.0,74,0.00,,---,0.00,VWS V14.01,2013-08-19 22:50:00,
2013-08-19 18:55:00,84.8,75.6,29.96,East,100,0.0,6.0,74,0.00,,---,0.00,VWS V14.01,2013-08-19 22:55:00,
2013-08-19 19:00:00,84.8,75.6,29.96,East,100,1.0,6.0,74,0.00,,---,0.00,VWS V14.01,2013-08-19 23:00:00,
2013-08-19 19:01:00,84.8,75.6,29.96,East,100,0.0,2.0,74,0.00,,---,0.00,VWS V14.01,2013-08-19 23:01:00,
2013-08-19 19:06:00,84.8,76.0,29.96,East,100,3.0,3.0,75,0.00,,---,0.00,VWS V14.01,2013-08-19 23:06:00,
2013-08-19 19:11:00,84.9,76.1,29.96,ESE,103,0.0,3.0,75,0.00,,---,0.00,VWS V14.01,2013-08-19 23:11:00,
2013-08-19 19:16:00,84.9,76.5,29.96,ESE,103,0.0,3.0,76,0.00,,---,0.00,VWS V14.01,2013-08-19 23:16:00,
2013-08-19 19:21:00,85.0,76.6,29.97,ESE,103,0.0,3.0,76,0.00,,---,0.00,VWS V14.01,2013-08-19 23:21:00,
2013-08-19 19:26:00,84.9,76.9,29.97,ESE,103,0.0,3.0,77,0.00,,---,0.00,VWS V14.01,2013-08-19 23:26:00,
2013-08-19 19:30:00,84.8,76.8,29.97,ESE,103,0.0,3.0,77,0.00,,---,0.00,VWS V14.01,2013-08-19 23:30:00,
2013-08-19 20:00:00,83.3,76.9,29.99,ESE,103,0.0,1.0,81,0.00,,---,0.00,VWS V14.01,2013-08-20 00:00:00,
2013-08-19 20:30:00,82.1,77.5,29.99,ESE,112,0.0,2.0,86,0.00,,---,0.00,VWS V14.01,2013-08-20 00:30:00,
2013-08-19 21:00:00,80.3,76.8,30.00,ESE,112,0.0,0.0,89,0.00,,---,0.00,VWS V14.01,2013-08-20 01:00:00,
2013-08-19 21:30:00,79.0,76.5,30.00,ESE,112,0.0,1.0,92,0.00,,---,0.00,VWS V14.01,2013-08-20 01:30:00,
2013-08-19 22:00:00,78.3,76.1,30.02,ESE,112,0.0,0.0,93,0.00,,---,0.00,VWS V14.01,2013-08-20 02:00:00,
2013-08-19 22:30:00,77.7,76.2,30.03,ESE,112,0.0,0.0,95,0.00,,---,0.00,VWS V14.01,2013-08-20 02:30:00,
2013-08-19 23:00:00,77.3,76.1,30.03,ESE,112,0.0,1.0,96,0.00,,---,0.00,VWS V14.01,2013-08-20 03:00:00,
2013-08-19 23:30:00,77.2,76.0,30.04,ESE,112,0.0,0.0,96,0.00,,---,0.00,VWS V14.01,2013-08-20 03:30:00,